createdAt,value
2022-11-18T00:00:52.766Z,1.20
2022-11-18T00:03:19.553Z,1.20
2022-11-18T00:05:56.562Z,1.20
2022-11-18T00:08:23.938Z,1.20
2022-11-18T00:10:50.842Z,1.20
2022-11-18T00:13:36.693Z,1.20
2022-11-18T00:16:04.569Z,1.20
2022-11-18T00:18:31.514Z,1.20
2022-11-18T00:21:02.230Z,1.30
2022-11-18T00:23:29.322Z,1.30
2022-11-18T00:25:56.246Z,1.30
2022-11-18T00:28:23.040Z,1.30
2022-11-18T00:30:49.820Z,1.30
2022-11-18T00:33:16.637Z,1.30
2022-11-18T00:35:43.436Z,1.30
2022-11-18T00:38:10.250Z,1.40
2022-11-18T00:40:37.259Z,1.40
2022-11-18T00:43:04.166Z,1.40
2022-11-18T00:45:30.994Z,1.40
2022-11-18T00:47:57.817Z,1.40
2022-11-18T00:50:24.881Z,1.40
2022-11-18T00:52:51.704Z,1.40
2022-11-18T00:55:18.570Z,1.50
2022-11-18T00:57:45.348Z,1.50
2022-11-18T01:00:12.346Z,1.40
2022-11-18T01:02:39.152Z,1.40
2022-11-18T01:05:06.095Z,1.40
2022-11-18T01:07:32.978Z,1.50
2022-11-18T01:09:59.846Z,1.50
2022-11-18T01:12:47.927Z,1.50
2022-11-18T01:15:17.049Z,1.50
2022-11-18T01:17:43.903Z,1.50
2022-11-18T01:20:10.920Z,1.40
2022-11-18T01:22:37.816Z,1.40
2022-11-18T01:25:04.815Z,1.40
2022-11-18T01:27:31.704Z,1.40
2022-11-18T01:29:58.497Z,1.30
2022-11-18T01:32:25.858Z,1.30
2022-11-18T01:34:52.784Z,1.30
2022-11-18T01:37:19.679Z,1.30
2022-11-18T01:39:46.458Z,1.30
2022-11-18T01:42:17.917Z,1.40
2022-11-18T01:44:56.827Z,1.40
2022-11-18T01:47:24.671Z,1.40
2022-11-18T01:49:51.501Z,1.40
2022-11-18T01:52:18.348Z,1.50
2022-11-18T01:54:48.559Z,1.50
2022-11-18T01:57:17.313Z,1.50
2022-11-18T01:59:46.507Z,1.50
2022-11-18T02:02:14.600Z,1.50
2022-11-18T02:04:43.280Z,1.60
2022-11-18T02:07:10.644Z,1.60
2022-11-18T02:09:38.425Z,1.60
2022-11-18T02:12:06.624Z,1.60
2022-11-18T02:14:35.692Z,1.70
2022-11-18T02:17:28.344Z,1.80
2022-11-18T02:20:01.392Z,1.80
2022-11-18T02:22:40.319Z,1.90
2022-11-18T02:25:10.231Z,1.80
2022-11-18T02:27:58.679Z,1.80
2022-11-18T02:30:25.631Z,1.80
2022-11-18T02:33:07.259Z,1.80
2022-11-18T02:35:39.562Z,1.90
2022-11-18T02:38:15.331Z,1.90
2022-11-18T02:40:44.187Z,1.90
2022-11-18T02:43:17.202Z,1.90
2022-11-18T02:45:45.699Z,1.90
2022-11-18T02:48:13.355Z,1.90
2022-11-18T02:50:42.281Z,1.80
2022-11-18T02:53:10.753Z,1.80
2022-11-18T02:55:39.401Z,1.80
2022-11-18T02:58:06.417Z,1.80
2022-11-18T03:00:33.459Z,1.80
2022-11-18T03:03:00.614Z,1.80
2022-11-18T03:05:30.355Z,1.70
2022-11-18T03:08:08.848Z,1.70
2022-11-18T03:10:42.474Z,1.70
2022-11-18T03:13:15.609Z,1.70
2022-11-18T03:15:52.683Z,1.80
2022-11-18T03:18:25.376Z,1.80
2022-11-18T03:21:12.439Z,1.80
2022-11-18T03:23:42.948Z,1.80
2022-11-18T03:26:12.644Z,1.70
2022-11-18T03:28:45.331Z,1.70
2022-11-18T03:31:19.274Z,1.70
2022-11-18T03:33:48.139Z,1.60
2022-11-18T03:36:16.878Z,1.60
2022-11-18T03:38:51.693Z,1.60
2022-11-18T03:41:21.182Z,1.60
2022-11-18T03:43:51.199Z,1.60
2022-11-18T03:46:28.856Z,1.60
2022-11-18T03:48:56.910Z,1.70
2022-11-18T03:51:26.477Z,1.60
2022-11-18T03:53:57.097Z,1.50
2022-11-18T03:56:26.666Z,1.50
2022-11-18T03:58:53.479Z,1.50
2022-11-18T04:01:31.845Z,1.50
2022-11-18T04:03:58.735Z,1.60
2022-11-18T04:06:30.553Z,1.60
2022-11-18T04:08:59.517Z,1.60
2022-11-18T04:11:50.176Z,1.60
2022-11-18T04:14:18.233Z,1.70
2022-11-18T04:16:45.575Z,1.70
2022-11-18T04:19:12.372Z,1.70
2022-11-18T04:21:39.185Z,1.70
2022-11-18T04:24:06.102Z,1.70
2022-11-18T04:26:32.935Z,1.70
2022-11-18T04:28:59.828Z,1.80
2022-11-18T04:31:26.662Z,1.80
2022-11-18T04:33:53.499Z,1.80
2022-11-18T04:36:20.276Z,1.80
2022-11-18T04:38:47.321Z,1.80
2022-11-18T04:41:14.141Z,1.80
2022-11-18T04:43:41.565Z,1.80
2022-11-18T04:46:08.407Z,1.80
2022-11-18T04:48:35.233Z,1.80
2022-11-18T04:51:05.216Z,1.80
2022-11-18T04:53:32.158Z,1.80
2022-11-18T04:56:05.844Z,1.90
2022-11-18T04:58:33.050Z,1.90
2022-11-18T05:00:59.907Z,1.90
2022-11-18T05:03:26.762Z,1.90
2022-11-18T05:05:53.673Z,2.00
2022-11-18T05:08:20.620Z,2.00
2022-11-18T05:10:47.422Z,2.10
2022-11-18T05:13:14.237Z,2.00
2022-11-18T05:15:41.063Z,2.00
2022-11-18T05:18:10.453Z,2.00
2022-11-18T05:20:41.496Z,2.10
2022-11-18T05:23:08.679Z,2.10
2022-11-18T05:25:36.045Z,2.10
2022-11-18T05:28:03.131Z,2.10
2022-11-18T05:30:30.181Z,2.10
2022-11-18T05:32:56.994Z,2.10
2022-11-18T05:35:23.845Z,2.10
2022-11-18T05:37:50.743Z,2.10
2022-11-18T05:40:18.015Z,2.20
2022-11-18T05:43:03.531Z,2.20
2022-11-18T05:45:30.353Z,2.20
2022-11-18T05:48:00.702Z,2.20
2022-11-18T05:50:27.630Z,2.20
2022-11-18T05:52:54.484Z,2.20
2022-11-18T05:55:23.645Z,2.20
2022-11-18T05:57:50.513Z,2.20
2022-11-18T06:00:17.740Z,2.20
2022-11-18T06:02:45.506Z,2.30
2022-11-18T06:05:13.568Z,2.20
2022-11-18T06:07:42.109Z,2.30
2022-11-18T06:10:10.163Z,2.30
2022-11-18T06:12:39.056Z,2.30
2022-11-18T06:15:09.449Z,2.30
2022-11-18T06:17:40.503Z,2.30
2022-11-18T06:20:07.721Z,2.30
2022-11-18T06:22:35.170Z,2.30
2022-11-18T06:25:02.327Z,2.30
2022-11-18T06:27:29.247Z,2.30
2022-11-18T06:29:55.998Z,2.30
2022-11-18T06:32:22.833Z,2.40
2022-11-18T06:34:49.783Z,2.40
2022-11-18T06:37:17.770Z,2.30
2022-11-18T06:39:44.626Z,2.40
2022-11-18T06:42:11.480Z,2.30
2022-11-18T06:44:38.438Z,2.30
2022-11-18T06:47:05.517Z,2.40
2022-11-18T06:49:32.308Z,2.40
2022-11-18T06:51:59.173Z,2.40
2022-11-18T06:54:25.965Z,2.40
2022-11-18T06:56:52.816Z,2.40
2022-11-18T06:59:24.566Z,2.30
2022-11-18T07:01:53.320Z,2.30
2022-11-18T07:04:20.671Z,2.30
2022-11-18T07:06:47.567Z,2.30
2022-11-18T07:09:14.442Z,2.30
2022-11-18T07:11:41.550Z,2.30
2022-11-18T07:14:09.183Z,2.30
2022-11-18T07:16:38.885Z,2.30
2022-11-18T07:19:10.075Z,2.40
2022-11-18T07:21:37.102Z,2.30
2022-11-18T07:24:05.907Z,2.30
2022-11-18T07:26:33.140Z,2.30
2022-11-18T07:28:59.962Z,2.40
2022-11-18T07:31:26.789Z,2.30
2022-11-18T07:33:56.209Z,2.40
2022-11-18T07:36:24.647Z,2.40
2022-11-18T07:38:51.484Z,2.40
2022-11-18T07:41:19.679Z,2.50
2022-11-18T07:43:47.534Z,2.40
2022-11-18T07:46:14.394Z,2.40
2022-11-18T07:48:41.972Z,2.40
2022-11-18T07:51:11.061Z,2.50
2022-11-18T07:53:38.009Z,2.50
2022-11-18T07:56:05.493Z,2.40
2022-11-18T07:58:32.270Z,2.50
2022-11-18T08:00:59.462Z,2.50
2022-11-18T08:03:29.514Z,2.50
2022-11-18T08:05:59.993Z,2.50
2022-11-18T08:08:27.037Z,2.50
2022-11-18T08:11:00.917Z,2.50
2022-11-18T08:13:28.161Z,2.50
2022-11-18T08:15:55.374Z,2.60
2022-11-18T08:18:22.655Z,2.50
2022-11-18T08:20:49.967Z,2.50
2022-11-18T08:23:17.308Z,2.40
2022-11-18T08:25:45.138Z,2.50
2022-11-18T08:28:12.725Z,2.50
2022-11-18T08:30:39.614Z,2.40
2022-11-18T08:33:06.653Z,2.40
2022-11-18T08:35:33.743Z,2.40
2022-11-18T08:38:00.584Z,2.40
2022-11-18T08:40:27.406Z,2.50
2022-11-18T08:42:54.325Z,2.50
2022-11-18T08:45:21.176Z,2.50
2022-11-18T08:47:47.973Z,2.50
2022-11-18T08:50:14.865Z,2.50
2022-11-18T08:52:41.729Z,2.50
2022-11-18T08:55:08.715Z,2.50
2022-11-18T08:57:35.539Z,2.60
2022-11-18T09:00:02.937Z,2.50
2022-11-18T09:02:29.724Z,2.60
2022-11-18T09:04:56.574Z,2.50
2022-11-18T09:07:23.421Z,2.50
2022-11-18T09:09:50.307Z,2.40
2022-11-18T09:12:17.708Z,2.50
2022-11-18T09:17:31.932Z,2.50
2022-11-18T09:19:58.832Z,2.50
2022-11-18T09:22:25.619Z,2.50
2022-11-18T09:24:52.474Z,2.50
2022-11-18T09:27:19.345Z,2.50
2022-11-18T09:29:46.539Z,2.60
2022-11-18T09:32:14.067Z,2.60
2022-11-18T09:34:40.942Z,2.60
2022-11-18T09:37:07.835Z,2.50
2022-11-18T09:39:36.172Z,2.60
2022-11-18T09:42:12.598Z,2.50
2022-11-18T09:44:46.107Z,2.50
2022-11-18T09:47:19.546Z,2.50
2022-11-18T09:49:47.013Z,2.50
2022-11-18T09:52:19.298Z,2.50
2022-11-18T09:54:46.293Z,2.50
2022-11-18T09:57:33.349Z,2.50
2022-11-18T10:00:00.937Z,2.50
2022-11-18T10:02:33.940Z,2.50
2022-11-18T10:05:07.635Z,2.50
2022-11-18T10:08:04.611Z,2.40
2022-11-18T10:10:38.741Z,2.40
2022-11-18T10:13:13.224Z,2.40
2022-11-18T10:15:43.916Z,2.40
2022-11-18T10:18:58.364Z,2.40
2022-11-18T10:21:15.786Z,2.50
2022-11-18T10:23:55.093Z,2.60
2022-11-18T10:26:38.668Z,2.60
2022-11-18T10:29:10.192Z,2.60
2022-11-18T10:31:40.812Z,2.50
2022-11-18T10:34:10.872Z,2.50
2022-11-18T10:36:38.111Z,2.50
2022-11-18T10:39:05.882Z,2.50
2022-11-18T10:41:38.421Z,2.50
2022-11-18T10:44:15.843Z,2.60
2022-11-18T10:46:42.926Z,2.60
2022-11-18T10:49:09.780Z,2.50
2022-11-18T10:51:47.836Z,2.50
2022-11-18T10:54:16.594Z,2.40
2022-11-18T10:56:56.541Z,2.50
2022-11-18T10:59:35.269Z,2.50
2022-11-18T11:02:11.505Z,2.50
2022-11-18T11:04:39.396Z,2.40
2022-11-18T11:07:16.704Z,2.40
2022-11-18T11:09:43.757Z,2.40
2022-11-18T11:12:15.893Z,2.50
2022-11-18T11:14:50.825Z,2.50
2022-11-18T11:17:37.959Z,2.50
2022-11-18T11:20:04.905Z,2.60
2022-11-18T11:22:31.842Z,2.60
2022-11-18T11:24:58.920Z,2.70
2022-11-18T11:30:12.423Z,2.80
2022-11-18T11:32:48.119Z,2.80
2022-11-18T11:35:37.425Z,2.90
2022-11-18T11:38:17.136Z,2.90
2022-11-18T11:41:02.772Z,2.90
2022-11-18T11:43:35.727Z,2.90
2022-11-18T11:46:02.532Z,2.90
2022-11-18T11:48:39.902Z,2.90
2022-11-18T11:51:18.999Z,2.90
2022-11-18T11:53:48.801Z,2.90
2022-11-18T11:56:22.853Z,2.90
2022-11-18T11:59:08.591Z,2.90
2022-11-18T12:01:46.560Z,2.90
2022-11-18T12:04:16.329Z,2.90
2022-11-18T12:06:46.526Z,2.90
2022-11-18T12:09:19.072Z,2.90
2022-11-18T12:11:55.774Z,2.90
2022-11-18T12:14:22.562Z,2.90
2022-11-18T12:17:12.412Z,2.90
2022-11-18T12:19:39.829Z,2.90
2022-11-18T12:22:07.169Z,2.90
2022-11-18T12:24:40.874Z,2.90
2022-11-18T12:27:13.057Z,2.90
2022-11-18T12:29:52.816Z,2.80
2022-11-18T12:32:22.820Z,2.80
2022-11-18T12:34:55.841Z,2.70
2022-11-18T12:37:25.407Z,2.70
2022-11-18T12:39:55.223Z,2.70
2022-11-18T12:42:53.021Z,2.80
2022-11-18T12:45:47.583Z,2.80
2022-11-18T12:48:27.399Z,2.80
2022-11-18T12:50:55.598Z,2.80
2022-11-18T12:53:34.656Z,2.70
2022-11-18T12:56:09.670Z,2.70
2022-11-18T12:58:36.667Z,2.70
2022-11-18T13:01:06.302Z,2.70
2022-11-18T13:03:33.560Z,2.70
2022-11-18T13:06:02.724Z,2.60
2022-11-18T13:08:29.839Z,2.70
2022-11-18T13:11:17.935Z,2.70
2022-11-18T13:13:45.171Z,2.70
2022-11-18T13:16:38.938Z,2.60
2022-11-18T13:19:05.761Z,2.60
2022-11-18T13:21:51.222Z,2.50
2022-11-18T13:24:19.595Z,2.50
2022-11-18T13:26:47.299Z,2.50
2022-11-18T13:29:15.276Z,2.50
2022-11-18T13:31:48.184Z,2.40
2022-11-18T13:34:25.809Z,2.40
2022-11-18T13:36:53.655Z,2.40
2022-11-18T13:39:24.922Z,2.30
2022-11-18T13:42:18.100Z,2.30
2022-11-18T13:44:46.270Z,2.30
2022-11-18T13:47:32.060Z,2.30
2022-11-18T13:50:11.301Z,2.30
2022-11-18T13:52:41.053Z,2.30
2022-11-18T13:55:20.531Z,2.30
2022-11-18T13:57:49.142Z,2.30
2022-11-18T14:00:24.391Z,2.30
2022-11-18T14:02:55.304Z,2.20
2022-11-18T14:05:22.356Z,2.20
2022-11-18T14:08:15.114Z,2.20
2022-11-18T14:10:43.618Z,2.20
2022-11-18T14:13:19.115Z,2.20
2022-11-18T14:15:46.065Z,2.10
2022-11-18T14:18:21.418Z,2.10
2022-11-18T14:20:52.649Z,2.10
2022-11-18T14:23:22.137Z,2.00
2022-11-18T14:25:48.979Z,2.00
2022-11-18T14:28:18.791Z,2.00
2022-11-18T14:30:57.779Z,2.00
2022-11-18T14:33:25.374Z,1.90
2022-11-18T14:35:54.813Z,1.80
2022-11-18T14:38:38.318Z,1.80
2022-11-18T14:41:11.218Z,1.80
2022-11-18T14:43:38.108Z,1.70
2022-11-18T14:46:06.655Z,1.70
2022-11-18T14:48:33.643Z,1.70
2022-11-18T14:51:00.514Z,1.60
2022-11-18T14:53:27.316Z,1.70
2022-11-18T14:55:55.141Z,1.60
2022-11-18T14:58:22.017Z,1.60
2022-11-18T15:00:49.578Z,1.50
2022-11-18T15:03:16.740Z,1.50
2022-11-18T15:05:43.629Z,1.50
2022-11-18T15:08:10.490Z,1.50
2022-11-18T15:10:37.258Z,1.50
2022-11-18T15:13:04.186Z,1.40
2022-11-18T15:15:31.180Z,1.40
2022-11-18T15:17:57.992Z,1.40
2022-11-18T15:20:24.915Z,1.40
2022-11-18T15:22:51.731Z,1.40
2022-11-18T15:25:18.603Z,1.40
2022-11-18T15:27:45.404Z,1.30
2022-11-18T15:30:13.565Z,1.30
2022-11-18T15:32:40.849Z,1.40
2022-11-18T15:35:08.142Z,1.20
2022-11-18T15:37:34.952Z,1.30
2022-11-18T15:40:01.846Z,1.30
2022-11-18T15:42:28.611Z,1.20
2022-11-18T15:44:55.354Z,1.30
2022-11-18T15:47:22.123Z,1.30
2022-11-18T15:49:48.956Z,1.30
2022-11-18T15:52:15.752Z,1.20
2022-11-18T15:54:42.555Z,1.20
2022-11-18T15:57:09.327Z,1.10
2022-11-18T15:59:36.120Z,1.10
2022-11-18T16:02:02.955Z,1.10
2022-11-18T16:04:29.821Z,1.10
2022-11-18T16:06:58.036Z,1.10
2022-11-18T16:09:24.906Z,1.10
2022-11-18T16:12:10.074Z,1.10
2022-11-18T16:14:38.252Z,1.10
2022-11-18T16:17:05.266Z,1.00
2022-11-18T16:19:33.649Z,1.00
2022-11-18T16:22:00.642Z,1.00
2022-11-18T16:24:28.858Z,0.90
2022-11-18T16:26:56.333Z,0.90
2022-11-18T16:29:24.210Z,0.90
2022-11-18T16:31:52.632Z,1.00
2022-11-18T16:34:24.409Z,1.00
2022-11-18T16:36:52.440Z,1.00
2022-11-18T16:39:23.495Z,1.00
2022-11-18T16:41:50.836Z,1.00
2022-11-18T16:44:17.987Z,1.10
2022-11-18T16:46:49.109Z,1.00
2022-11-18T16:49:17.189Z,1.10
2022-11-18T16:51:45.393Z,1.10
2022-11-18T16:54:18.356Z,1.00
2022-11-18T16:56:45.747Z,1.00
2022-11-18T16:59:14.200Z,1.00
2022-11-18T17:01:41.806Z,1.00
2022-11-18T17:04:08.956Z,1.00
2022-11-18T17:06:35.798Z,1.00
2022-11-18T17:09:02.666Z,1.00
2022-11-18T17:11:29.719Z,1.00
2022-11-18T17:13:58.201Z,0.90
2022-11-18T17:16:26.205Z,0.90
2022-11-18T17:18:56.927Z,0.90
2022-11-18T17:21:24.035Z,0.90
2022-11-18T17:23:51.463Z,0.90
2022-11-18T17:26:20.469Z,0.90
2022-11-18T17:28:47.777Z,0.90
2022-11-18T17:31:16.471Z,0.90
2022-11-18T17:33:43.787Z,0.90
2022-11-18T17:36:11.531Z,0.90
2022-11-18T17:38:39.547Z,0.90
2022-11-18T17:41:07.127Z,0.90
2022-11-18T17:43:34.202Z,0.90
2022-11-18T17:46:02.673Z,0.90
2022-11-18T17:48:30.349Z,0.90
2022-11-18T17:51:06.940Z,0.90
2022-11-18T17:53:33.795Z,0.80
2022-11-18T17:56:03.835Z,0.80
2022-11-18T17:58:31.219Z,0.90
2022-11-18T18:01:06.102Z,0.90
2022-11-18T18:03:32.953Z,0.90
2022-11-18T18:06:03.263Z,0.90
2022-11-18T18:08:30.213Z,0.90
2022-11-18T18:11:07.732Z,0.90
2022-11-18T18:13:53.295Z,0.90
2022-11-18T18:16:20.025Z,0.90
2022-11-18T18:18:46.877Z,0.90
2022-11-18T18:21:14.168Z,0.90
2022-11-18T18:23:41.031Z,0.90
2022-11-18T18:26:08.666Z,0.90
2022-11-18T18:28:35.906Z,0.90
2022-11-18T18:31:04.832Z,0.90
2022-11-18T18:33:32.357Z,0.80
2022-11-18T18:36:03.297Z,0.80
2022-11-18T18:38:33.814Z,0.80
2022-11-18T18:41:04.562Z,0.80
2022-11-18T18:43:31.503Z,0.80
2022-11-18T18:46:24.022Z,0.80
2022-11-18T18:48:51.026Z,0.70
2022-11-18T18:51:18.696Z,0.80
2022-11-18T18:53:45.609Z,0.80
2022-11-18T18:56:16.781Z,0.70
2022-11-18T18:58:43.650Z,0.70
2022-11-18T19:01:12.321Z,0.70
2022-11-18T19:03:39.877Z,0.70
2022-11-18T19:09:08.597Z,0.70
2022-11-18T19:11:54.710Z,0.70
2022-11-18T19:14:21.930Z,0.70
2022-11-18T19:16:48.969Z,0.70
2022-11-18T19:19:17.749Z,0.70
2022-11-18T19:21:47.666Z,0.80
2022-11-18T19:24:35.235Z,0.70
2022-11-18T19:27:01.319Z,0.80
2022-11-18T19:29:28.148Z,0.80
2022-11-18T19:31:55.052Z,0.80
2022-11-18T19:34:21.850Z,0.80
2022-11-18T19:36:48.663Z,0.80
2022-11-18T19:39:15.490Z,0.90
2022-11-18T19:41:42.334Z,0.90
2022-11-18T19:44:09.250Z,0.90
2022-11-18T19:46:36.072Z,1.00
2022-11-18T19:49:02.985Z,1.00
2022-11-18T19:51:30.927Z,1.00
2022-11-18T19:53:59.836Z,1.10
2022-11-18T19:56:26.899Z,1.10
2022-11-18T19:58:54.922Z,1.10
2022-11-18T20:01:27.651Z,1.10
2022-11-18T20:03:56.210Z,1.20
2022-11-18T20:06:24.290Z,1.20
2022-11-18T20:08:51.355Z,1.20
2022-11-18T20:11:19.250Z,1.20
2022-11-18T20:13:47.129Z,1.20
2022-11-18T20:16:18.898Z,1.20
2022-11-18T20:18:49.731Z,1.20
2022-11-18T20:21:21.048Z,1.20
2022-11-18T20:23:49.026Z,1.20
2022-11-18T20:26:16.969Z,1.20
2022-11-18T20:28:44.295Z,1.20
2022-11-18T20:31:12.708Z,1.20
2022-11-18T20:33:40.137Z,1.20
2022-11-18T20:36:14.057Z,1.20
2022-11-18T20:38:41.408Z,1.20
2022-11-18T20:41:09.339Z,1.20
2022-11-18T20:43:37.152Z,1.10
2022-11-18T20:46:05.025Z,1.20
2022-11-18T20:48:32.341Z,1.20
2022-11-18T20:51:05.874Z,1.20
2022-11-18T20:53:32.744Z,1.20
2022-11-18T20:55:59.584Z,1.20
2022-11-18T20:58:26.442Z,1.20
2022-11-18T21:00:55.271Z,1.20
2022-11-18T21:03:24.869Z,1.20
2022-11-18T21:05:51.646Z,1.20
2022-11-18T21:08:18.499Z,1.20
2022-11-18T21:10:45.314Z,1.30
2022-11-18T21:13:30.822Z,1.30
2022-11-18T21:15:57.614Z,1.30
2022-11-18T21:18:24.422Z,1.20
2022-11-18T21:21:14.790Z,1.20
2022-11-18T21:23:41.542Z,1.30
2022-11-18T21:26:13.293Z,1.30
2022-11-18T21:28:40.357Z,1.30
2022-11-18T21:31:08.379Z,1.20
2022-11-18T21:33:35.200Z,1.30
2022-11-18T21:36:02.087Z,1.30
2022-11-18T21:38:28.938Z,1.30
2022-11-18T21:41:01.827Z,1.40
2022-11-18T21:44:03.350Z,1.30
2022-11-18T21:46:18.282Z,1.30
2022-11-18T21:48:45.144Z,1.30
2022-11-18T21:51:13.781Z,1.30
2022-11-18T21:53:40.675Z,1.30
2022-11-18T21:56:07.723Z,1.30
2022-11-18T21:58:34.567Z,1.30
2022-11-18T22:01:07.987Z,1.30
2022-11-18T22:03:37.671Z,1.30
2022-11-18T22:06:04.834Z,1.30
2022-11-18T22:08:32.000Z,1.30
2022-11-18T22:10:58.821Z,1.30
2022-11-18T22:13:25.668Z,1.30
2022-11-18T22:15:59.131Z,1.40
2022-11-18T22:18:25.978Z,1.30
2022-11-18T22:20:56.699Z,1.30
2022-11-18T22:23:25.339Z,1.30
2022-11-18T22:26:04.414Z,1.30
2022-11-18T22:28:31.494Z,1.30
2022-11-18T22:31:04.820Z,1.30
2022-11-18T22:33:32.251Z,1.40
2022-11-18T22:35:59.734Z,1.40
2022-11-18T22:38:26.619Z,1.40
2022-11-18T22:40:58.253Z,1.40
2022-11-18T22:43:25.089Z,1.30
2022-11-18T22:45:58.651Z,1.30
2022-11-18T22:48:25.454Z,1.40
2022-11-18T22:51:02.387Z,1.40
2022-11-18T22:53:29.934Z,1.40
2022-11-18T22:56:03.550Z,1.40
2022-11-18T22:58:30.633Z,1.40
2022-11-18T23:01:04.637Z,1.40
2022-11-18T23:03:31.996Z,1.40
2022-11-18T23:05:58.935Z,1.40
2022-11-18T23:08:26.470Z,1.40
2022-11-18T23:10:53.481Z,1.40
2022-11-18T23:13:38.947Z,1.40
2022-11-18T23:16:05.937Z,1.40
2022-11-18T23:18:32.707Z,1.40
2022-11-18T23:21:02.299Z,1.50
2022-11-18T23:23:29.702Z,1.40
2022-11-18T23:26:02.588Z,1.50
2022-11-18T23:28:29.398Z,1.50
2022-11-18T23:31:19.041Z,1.50
2022-11-18T23:33:46.109Z,1.50
2022-11-18T23:36:15.094Z,1.50
2022-11-18T23:38:42.188Z,1.40
2022-11-18T23:41:09.992Z,1.40
2022-11-18T23:43:37.172Z,1.40
2022-11-18T23:46:04.680Z,1.40
2022-11-18T23:48:32.600Z,1.40
2022-11-18T23:51:01.193Z,1.30
2022-11-18T23:53:28.582Z,1.30
2022-11-18T23:55:55.786Z,1.40
2022-11-18T23:58:22.530Z,1.40
